Time;durP1;ratioP1;P1;durP2;ratioP2;P2;SDS_P1;SDS_P2;PMS_P1;PMS_P2;Temp;Humidity;BMP_temperature;BMP_pressure;BME280_temperature;BME280_humidity;BME280_pressure;Samples;Min_cycle;Max_cycle;Signal;HPM_P1;HPM_P2
2023/06/17 00:01:15;;;;;;;29.35;23.52;;;15.60;93.50;;;;;;4998056;28;20440;-68
2023/06/17 00:03:42;;;;;;;29.90;22.10;;;15.60;93.40;;;;;;4999921;28;20493;-68
2023/06/17 00:06:07;;;;;;;31.55;23.08;;;15.60;93.40;;;;;;5004234;28;20144;-68
2023/06/17 00:08:33;;;;;;;31.60;22.63;;;15.60;93.70;;;;;;5006964;28;20133;-68
2023/06/17 00:10:58;;;;;;;28.05;22.98;;;15.60;93.30;;;;;;5002665;28;20110;-67
2023/06/17 00:13:24;;;;;;;31.23;22.02;;;15.50;92.80;;;;;;5003166;28;20087;-68
2023/06/17 00:15:56;;;;;;;33.00;23.48;;;15.60;92.90;;;;;;5006063;28;20445;-67
2023/06/17 00:18:25;;;;;;;31.70;23.27;;;15.60;92.90;;;;;;5001063;28;20187;-68
2023/06/17 00:20:52;;;;;;;32.03;22.02;;;15.70;93.00;;;;;;5007640;28;20046;-67
2023/06/17 00:23:21;;;;;;;36.92;24.65;;;15.80;93.00;;;;;;5004860;28;20170;-67
2023/06/17 00:25:48;;;;;;;34.35;23.85;;;15.70;93.00;;;;;;5008958;28;20153;-71
2023/06/17 00:28:13;;;;;;;28.80;22.48;;;15.70;92.90;;;;;;5008595;28;20026;-68
2023/06/17 00:30:39;;;;;;;30.48;22.75;;;15.70;93.00;;;;;;5004794;28;20048;-71
2023/06/17 00:33:04;;;;;;;34.70;23.10;;;15.70;92.80;;;;;;5016976;28;20018;-68
2023/06/17 00:35:30;;;;;;;35.85;22.60;;;15.70;92.80;;;;;;5004389;28;20100;-71
2023/06/17 00:37:55;;;;;;;26.58;22.25;;;15.70;92.70;;;;;;5003339;28;20112;-68
2023/06/17 00:40:21;;;;;;;31.67;23.35;;;15.60;92.80;;;;;;5000232;28;20545;-70
2023/06/17 00:42:46;;;;;;;29.40;22.02;;;15.60;93.00;;;;;;5009141;28;20100;-71
2023/06/17 00:45:12;;;;;;;28.45;21.95;;;15.70;92.80;;;;;;5005329;28;20049;-68
2023/06/17 00:47:38;;;;;;;29.52;21.77;;;15.70;92.70;;;;;;5009152;28;20060;-68
2023/06/17 00:50:07;;;;;;;37.25;22.88;;;15.70;92.80;;;;;;5010095;28;20175;-68
2023/06/17 00:52:33;;;;;;;32.05;22.45;;;15.70;92.80;;;;;;5005110;28;20022;-68
2023/06/17 00:54:59;;;;;;;30.67;21.67;;;15.70;92.80;;;;;;5004909;28;20115;-67
2023/06/17 00:57:24;;;;;;;33.78;22.63;;;15.70;92.60;;;;;;5002470;28;20058;-68
2023/06/17 00:59:50;;;;;;;32.80;22.73;;;15.70;92.70;;;;;;5011218;28;20050;-70
2023/06/17 01:02:17;;;;;;;29.17;21.95;;;15.70;92.60;;;;;;5002997;28;20030;-69
2023/06/17 01:04:43;;;;;;;34.60;22.75;;;15.70;92.80;;;;;;5005988;28;20487;-68
2023/06/17 01:07:23;;;;;;;30.55;22.67;;;15.70;92.90;;;;;;5002936;28;20060;-69
2023/06/17 01:09:55;;;;;;;32.75;23.00;;;15.80;92.90;;;;;;4997506;28;20531;-68
2023/06/17 01:12:25;;;;;;;30.48;23.75;;;15.80;93.00;;;;;;5002126;28;20104;-68
2023/06/17 01:14:54;;;;;;;30.38;22.55;;;15.70;92.90;;;;;;4999787;28;20133;-69
2023/06/17 01:17:20;;;;;;;33.75;23.60;;;15.70;93.00;;;;;;4997125;28;20094;-68
2023/06/17 01:19:48;;;;;;;29.55;22.63;;;15.70;92.90;;;;;;5013175;28;20335;-69
2023/06/17 01:22:15;;;;;;;29.35;22.38;;;15.80;92.80;;;;;;5005574;28;20485;-67
2023/06/17 01:24:42;;;;;;;30.75;23.08;;;15.70;92.90;;;;;;5009565;28;20080;-68
2023/06/17 01:27:08;;;;;;;31.38;23.15;;;15.60;92.90;;;;;;5005872;28;20093;-68
2023/06/17 01:29:37;;;;;;;31.80;23.50;;;15.50;93.00;;;;;;5010958;28;20108;-68
2023/06/17 01:32:05;;;;;;;35.08;23.10;;;15.50;92.90;;;;;;4998788;28;20033;-67
2023/06/17 01:35:13;;;;;;;31.88;21.98;;;15.50;92.80;;;;;;5016614;28;20347;-67
2023/06/17 01:37:56;;;;;;;29.15;20.73;;;15.60;92.50;;;;;;5002107;28;20037;-67
2023/06/17 01:40:24;;;;;;;29.27;20.27;;;15.70;92.20;;;;;;5017051;28;20284;-70
2023/06/17 01:42:53;;;;;;;32.60;21.80;;;15.70;92.10;;;;;;4998234;28;20124;-67
2023/06/17 01:45:19;;;;;;;27.05;21.88;;;15.60;92.10;;;;;;5001852;28;20061;-67
2023/06/17 01:47:45;;;;;;;29.98;23.20;;;15.60;92.20;;;;;;5003373;28;20068;-68
2023/06/17 01:50:10;;;;;;;32.90;22.35;;;15.60;92.00;;;;;;5016756;28;20158;-70
2023/06/17 01:52:36;;;;;;;30.55;21.20;;;15.60;92.10;;;;;;5003829;28;20156;-68
2023/06/17 01:55:03;;;;;;;28.38;21.85;;;15.50;92.20;;;;;;5007126;28;20330;-68
2023/06/17 01:57:28;;;;;;;31.13;22.58;;;15.60;92.30;;;;;;5011204;28;20038;-68
2023/06/17 01:59:55;;;;;;;28.52;21.80;;;15.60;92.20;;;;;;5000880;28;20041;-67
2023/06/17 02:02:21;;;;;;;34.60;23.25;;;15.50;92.30;;;;;;5002349;28;20029;-67
2023/06/17 02:04:47;;;;;;;33.95;22.05;;;15.50;92.40;;;;;;5009518;28;20421;-67
2023/06/17 02:07:13;;;;;;;29.08;21.63;;;15.50;92.40;;;;;;5007059;28;20121;-68
2023/06/17 02:09:39;;;;;;;34.85;22.20;;;15.50;92.50;;;;;;5004979;28;20032;-67
2023/06/17 02:12:06;;;;;;;31.42;22.45;;;15.50;92.60;;;;;;5005515;28;20073;-67
2023/06/17 02:14:33;;;;;;;25.55;21.13;;;15.60;92.30;;;;;;5011349;28;20038;-69
2023/06/17 02:16:58;;;;;;;33.75;21.88;;;15.60;92.10;;;;;;5011301;28;20094;-68
2023/06/17 02:19:24;;;;;;;32.83;22.48;;;15.50;92.30;;;;;;5008909;28;20033;-68
2023/06/17 02:21:49;;;;;;;30.25;19.90;;;15.50;92.50;;;;;;5008693;28;20041;-68
2023/06/17 02:24:15;;;;;;;24.83;20.70;;;15.50;92.20;;;;;;5005179;28;20038;-67
2023/06/17 02:26:41;;;;;;;29.63;21.52;;;15.50;92.20;;;;;;5007148;28;20033;-67
2023/06/17 02:29:07;;;;;;;30.35;20.58;;;15.50;92.20;;;;;;5004055;28;20105;-68
2023/06/17 02:31:32;;;;;;;33.85;20.85;;;15.60;92.30;;;;;;5015036;28;20105;-67
2023/06/17 02:33:59;;;;;;;29.00;21.05;;;15.50;92.20;;;;;;5007618;28;20029;-68
2023/06/17 02:36:25;;;;;;;30.27;19.88;;;15.50;91.90;;;;;;5008779;28;20041;-67
2023/06/17 02:38:53;;;;;;;26.27;20.55;;;15.50;92.10;;;;;;5007866;28;20029;-69
2023/06/17 02:41:19;;;;;;;27.00;19.95;;;15.50;92.10;;;;;;5015877;28;20045;-68
2023/06/17 02:43:44;;;;;;;28.60;20.55;;;15.50;92.00;;;;;;5011285;28;20074;-68
2023/06/17 02:46:10;;;;;;;31.08;21.70;;;15.50;92.10;;;;;;5021033;28;20040;-69
2023/06/17 02:48:36;;;;;;;26.92;19.38;;;15.50;92.20;;;;;;5003836;28;20541;-68
2023/06/17 02:51:03;;;;;;;30.48;20.33;;;15.50;92.10;;;;;;5008531;28;20530;-68
2023/06/17 02:53:29;;;;;;;28.98;20.83;;;15.50;92.00;;;;;;5009715;28;20497;-69
2023/06/17 02:55:55;;;;;;;32.88;21.30;;;15.60;92.00;;;;;;5011165;28;20137;-67
2023/06/17 02:58:21;;;;;;;31.08;21.27;;;15.60;91.90;;;;;;5007973;28;20054;-67
2023/06/17 03:00:46;;;;;;;31.45;20.92;;;15.60;92.00;;;;;;5003465;28;20084;-68
2023/06/17 03:03:12;;;;;;;27.65;21.98;;;15.60;92.00;;;;;;5008124;28;20042;-68
2023/06/17 03:05:38;;;;;;;31.00;21.60;;;15.50;92.00;;;;;;5011631;28;20346;-68
2023/06/17 03:08:06;;;;;;;34.38;21.63;;;15.50;92.10;;;;;;5003593;28;20028;-68
2023/06/17 03:10:31;;;;;;;31.80;21.48;;;15.50;92.20;;;;;;5003844;28;20022;-67
2023/06/17 03:12:57;;;;;;;29.95;21.45;;;15.50;92.10;;;;;;5012342;28;20440;-68
2023/06/17 03:15:23;;;;;;;33.47;22.20;;;15.50;91.80;;;;;;5004853;28;20046;-68
2023/06/17 03:17:49;;;;;;;33.33;21.45;;;15.50;92.00;;;;;;5011679;28;20098;-68
2023/06/17 03:20:15;;;;;;;37.53;21.88;;;15.60;92.00;;;;;;5000923;28;20129;-69
2023/06/17 03:22:41;;;;;;;29.38;21.20;;;15.60;91.80;;;;;;5011973;28;20030;-67
2023/06/17 03:25:07;;;;;;;31.23;20.75;;;15.60;91.80;;;;;;5016856;28;20070;-68
2023/06/17 03:27:33;;;;;;;30.95;20.42;;;15.60;91.80;;;;;;5007489;28;20116;-67
2023/06/17 03:29:59;;;;;;;26.58;21.23;;;15.60;91.60;;;;;;4999181;28;20109;-68
2023/06/17 03:32:24;;;;;;;31.05;21.20;;;15.60;91.80;;;;;;5006219;28;20514;-68
2023/06/17 03:34:52;;;;;;;29.08;20.85;;;15.70;91.70;;;;;;5008450;28;20036;-67
2023/06/17 03:37:18;;;;;;;31.40;22.38;;;15.60;91.70;;;;;;4999785;28;20041;-68
2023/06/17 03:39:45;;;;;;;29.45;21.23;;;15.50;91.60;;;;;;5006074;28;20041;-68
2023/06/17 03:42:12;;;;;;;34.22;21.98;;;15.60;91.70;;;;;;5004683;28;20445;-68
2023/06/17 03:44:38;;;;;;;36.42;22.35;;;15.50;91.90;;;;;;5006249;28;20022;-67
2023/06/17 03:47:04;;;;;;;28.45;19.92;;;15.50;91.90;;;;;;4999015;28;20056;-67
2023/06/17 03:49:29;;;;;;;29.77;20.65;;;15.50;91.70;;;;;;5003866;28;20038;-67
2023/06/17 03:51:55;;;;;;;32.22;21.52;;;15.50;91.60;;;;;;5000540;28;20034;-68
2023/06/17 03:54:20;;;;;;;30.38;20.05;;;15.50;91.70;;;;;;5001177;28;20140;-68
2023/06/17 03:56:46;;;;;;;33.63;22.20;;;15.50;91.70;;;;;;5003300;28;20050;-69
2023/06/17 03:59:11;;;;;;;28.77;19.88;;;15.60;91.60;;;;;;4999642;28;20038;-67
2023/06/17 04:01:36;;;;;;;30.67;20.58;;;15.60;91.70;;;;;;5003037;28;20430;-68
2023/06/17 04:04:03;;;;;;;28.20;19.83;;;15.70;91.50;;;;;;5007428;28;20034;-68
2023/06/17 04:06:28;;;;;;;29.98;20.98;;;15.70;91.50;;;;;;5005958;28;20731;-68
2023/06/17 04:08:54;;;;;;;28.60;19.33;;;15.80;91.30;;;;;;4998951;28;20038;-68
2023/06/17 04:11:19;;;;;;;29.60;18.23;;;15.60;91.20;;;;;;5004402;28;20026;-68
2023/06/17 04:13:45;;;;;;;29.90;18.67;;;15.60;91.50;;;;;;5012390;28;20126;-68
2023/06/17 04:16:15;;;;;;;26.65;18.88;;;15.70;91.50;;;;;;5000606;28;20109;-68
2023/06/17 04:18:40;;;;;;;25.33;19.52;;;15.70;91.20;;;;;;5004448;28;20125;-69
2023/06/17 04:21:05;;;;;;;29.63;19.90;;;15.80;90.90;;;;;;4998695;28;20498;-68
2023/06/17 04:23:31;;;;;;;29.65;18.98;;;15.80;91.00;;;;;;5002737;28;20096;-69
2023/06/17 04:25:56;;;;;;;29.27;18.15;;;15.80;90.90;;;;;;5003320;28;20056;-68
2023/06/17 04:28:23;;;;;;;30.13;20.23;;;15.80;91.20;;;;;;5007961;28;20414;-65
2023/06/17 04:30:48;;;;;;;28.23;19.70;;;15.70;91.10;;;;;;5006465;28;20129;-65
2023/06/17 04:33:14;;;;;;;32.28;19.15;;;15.80;91.00;;;;;;5006864;28;20465;-67
2023/06/17 04:35:42;;;;;;;24.77;19.13;;;15.70;91.10;;;;;;4999946;28;20033;-66
2023/06/17 04:38:08;;;;;;;27.90;18.55;;;15.70;91.40;;;;;;5003667;28;20017;-65
2023/06/17 04:40:36;;;;;;;27.90;19.13;;;15.80;91.20;;;;;;5002434;28;20033;-65
2023/06/17 04:43:02;;;;;;;30.55;19.90;;;15.80;91.20;;;;;;5005016;28;20026;-66
2023/06/17 04:45:27;;;;;;;27.52;18.70;;;15.90;91.20;;;;;;5006577;28;20049;-66
2023/06/17 04:47:53;;;;;;;29.65;19.23;;;15.80;91.20;;;;;;5003078;28;20080;-66
2023/06/17 04:50:19;;;;;;;29.88;19.58;;;15.80;91.20;;;;;;5007769;28;20060;-65
2023/06/17 04:52:50;;;;;;;31.52;19.65;;;15.80;91.50;;;;;;5009422;28;20101;-66
2023/06/17 04:55:18;;;;;;;30.20;19.33;;;15.80;91.30;;;;;;5007018;28;20475;-66
2023/06/17 04:57:44;;;;;;;31.27;19.25;;;15.80;91.30;;;;;;5007978;28;20021;-68
2023/06/17 05:00:12;;;;;;;28.42;19.70;;;15.80;91.30;;;;;;4999985;28;20034;-65
2023/06/17 05:02:38;;;;;;;29.70;18.65;;;15.80;91.40;;;;;;5000015;28;20018;-65
2023/06/17 05:05:05;;;;;;;29.55;19.65;;;15.80;91.40;;;;;;5006866;28;20086;-65
2023/06/17 05:07:30;;;;;;;29.63;18.60;;;15.80;91.30;;;;;;5002032;28;20042;-65
2023/06/17 05:09:56;;;;;;;34.70;19.80;;;15.80;91.50;;;;;;5000544;28;20387;-65
2023/06/17 05:12:21;;;;;;;32.45;18.98;;;15.90;91.30;;;;;;4998085;28;20030;-65
2023/06/17 05:14:47;;;;;;;30.75;18.48;;;15.90;91.20;;;;;;5007700;28;20055;-65
2023/06/17 05:17:13;;;;;;;30.95;18.95;;;15.90;91.20;;;;;;4998820;28;20403;-65
2023/06/17 05:19:38;;;;;;;29.50;19.02;;;15.90;91.40;;;;;;5004302;28;20034;-65
2023/06/17 05:22:04;;;;;;;31.55;19.20;;;15.90;91.40;;;;;;5013361;28;20038;-65
2023/06/17 05:24:29;;;;;;;34.25;19.00;;;15.90;91.50;;;;;;4999415;28;20056;-65
2023/06/17 05:26:55;;;;;;;31.35;19.60;;;15.90;91.50;;;;;;5004030;28;20447;-65
2023/06/17 05:29:20;;;;;;;28.40;19.20;;;16.00;91.40;;;;;;5002249;28;20296;-66
2023/06/17 05:31:46;;;;;;;24.63;18.80;;;15.90;91.60;;;;;;5019368;28;20374;-65
2023/06/17 05:34:11;;;;;;;31.27;19.08;;;16.00;91.40;;;;;;5004028;28;20033;-65
2023/06/17 05:36:37;;;;;;;33.05;19.88;;;16.00;91.40;;;;;;5008013;28;20026;-66
2023/06/17 05:39:02;;;;;;;28.67;17.38;;;16.10;91.20;;;;;;5002394;28;20018;-67
2023/06/17 05:41:28;;;;;;;33.75;20.20;;;16.00;91.20;;;;;;5004978;28;20026;-66
2023/06/17 05:43:53;;;;;;;30.30;18.85;;;16.00;91.40;;;;;;5006732;28;20029;-65
2023/06/17 05:46:19;;;;;;;29.10;18.90;;;16.00;91.50;;;;;;5011826;28;20082;-65
2023/06/17 05:48:44;;;;;;;30.88;18.45;;;16.00;91.30;;;;;;5008090;28;20446;-65
2023/06/17 05:51:10;;;;;;;26.42;17.45;;;16.10;91.20;;;;;;5009323;28;20073;-65
2023/06/17 05:53:35;;;;;;;26.40;17.52;;;16.20;91.00;;;;;;5006213;28;20052;-65
2023/06/17 05:56:01;;;;;;;26.60;17.40;;;16.30;90.90;;;;;;5004982;28;20041;-66
2023/06/17 05:58:26;;;;;;;29.58;17.35;;;16.40;90.40;;;;;;5008863;28;20041;-65
2023/06/17 06:00:51;;;;;;;25.45;17.20;;;16.40;90.40;;;;;;5005220;28;20099;-65
2023/06/17 06:03:17;;;;;;;26.42;18.48;;;16.40;90.10;;;;;;5005577;28;20034;-64
2023/06/17 06:05:42;;;;;;;27.98;17.38;;;16.40;90.00;;;;;;5003902;28;20056;-64
2023/06/17 06:08:08;;;;;;;29.80;18.65;;;16.40;90.50;;;;;;5002521;28;20041;-64
2023/06/17 06:10:33;;;;;;;26.95;17.17;;;16.40;90.40;;;;;;5004268;28;20057;-65
2023/06/17 06:12:59;;;;;;;28.52;17.60;;;16.50;90.20;;;;;;5003927;28;20354;-64
2023/06/17 06:15:25;;;;;;;30.48;17.42;;;16.50;89.90;;;;;;5005999;28;20072;-64
2023/06/17 06:17:51;;;;;;;27.55;17.50;;;16.60;89.90;;;;;;5006846;28;20026;-65
2023/06/17 06:20:17;;;;;;;26.35;17.85;;;16.70;89.60;;;;;;5006841;28;20052;-65
2023/06/17 06:22:42;;;;;;;29.63;17.35;;;16.80;89.10;;;;;;5000045;28;20101;-65
2023/06/17 06:25:08;;;;;;;22.55;17.38;;;16.80;89.10;;;;;;5007619;28;20116;-66
2023/06/17 06:27:34;;;;;;;26.48;16.75;;;16.80;89.30;;;;;;5006203;28;20699;-65
2023/06/17 06:29:59;;;;;;;25.65;16.65;;;16.90;89.00;;;;;;5009074;28;20042;-65
2023/06/17 06:32:24;;;;;;;23.60;16.70;;;17.00;88.50;;;;;;4997229;28;20369;-65
2023/06/17 06:34:50;;;;;;;26.98;16.55;;;17.00;88.30;;;;;;4997221;28;20106;-65
2023/06/17 06:37:16;;;;;;;23.55;15.48;;;16.90;88.70;;;;;;5007499;28;20050;-65
2023/06/17 06:39:42;;;;;;;22.60;16.25;;;16.90;88.80;;;;;;5004128;28;20030;-64
2023/06/17 06:42:08;;;;;;;25.35;15.90;;;16.90;88.70;;;;;;5007696;28;20028;-65
2023/06/17 06:44:34;;;;;;;25.38;15.77;;;16.90;88.90;;;;;;5001280;28;20607;-65
2023/06/17 06:46:59;;;;;;;28.05;17.52;;;17.00;88.70;;;;;;5003758;28;20451;-64
2023/06/17 06:49:25;;;;;;;21.05;15.88;;;16.80;88.70;;;;;;5007838;28;20429;-66
2023/06/17 06:51:50;;;;;;;24.63;17.20;;;16.90;88.70;;;;;;5001573;28;20167;-64
2023/06/17 06:54:16;;;;;;;23.00;16.63;;;17.00;88.70;;;;;;5004960;28;20056;-65
2023/06/17 06:56:41;;;;;;;23.85;16.35;;;17.00;88.40;;;;;;5000245;28;20029;-64
2023/06/17 06:59:07;;;;;;;27.27;16.70;;;17.10;88.40;;;;;;5005165;28;20041;-66
2023/06/17 07:01:32;;;;;;;24.75;16.35;;;17.30;88.20;;;;;;5014883;28;20466;-64
2023/06/17 07:03:58;;;;;;;22.13;15.10;;;17.30;87.60;;;;;;5008401;28;20491;-65
2023/06/17 07:06:23;;;;;;;26.42;16.50;;;17.40;87.70;;;;;;5002815;28;20349;-64
2023/06/17 07:08:49;;;;;;;24.15;15.95;;;17.40;87.50;;;;;;4998378;28;20573;-65
2023/06/17 07:11:14;;;;;;;26.85;16.17;;;17.40;87.40;;;;;;5002943;28;20470;-66
2023/06/17 07:13:41;;;;;;;23.10;16.27;;;17.50;87.10;;;;;;5017332;28;20025;-64
2023/06/17 07:16:06;;;;;;;24.33;15.82;;;17.60;86.70;;;;;;5001139;28;20133;-65
2023/06/17 07:18:32;;;;;;;23.27;15.63;;;17.50;86.80;;;;;;4993732;28;20042;-64
2023/06/17 07:20:57;;;;;;;22.63;16.10;;;17.60;86.70;;;;;;4996641;28;20026;-63
2023/06/17 07:23:26;;;;;;;24.23;15.18;;;17.60;86.50;;;;;;4993389;28;20025;-66
2023/06/17 07:25:51;;;;;;;24.08;16.27;;;17.90;86.40;;;;;;5007346;28;20042;-64
2023/06/17 07:28:17;;;;;;;26.98;15.48;;;17.90;85.80;;;;;;5010887;28;20040;-64
2023/06/17 07:30:43;;;;;;;28.20;16.25;;;18.00;86.00;;;;;;5004212;28;20022;-63
2023/06/17 07:33:08;;;;;;;21.35;14.65;;;18.30;85.00;;;;;;5009237;28;20038;-63
2023/06/17 07:35:34;;;;;;;23.63;15.10;;;18.40;84.70;;;;;;4994047;28;20038;-63
2023/06/17 07:37:59;;;;;;;21.88;15.35;;;18.30;84.90;;;;;;5010526;28;20460;-64
2023/06/17 07:40:25;;;;;;;20.42;15.07;;;18.30;84.20;;;;;;4998999;28;20034;-63
2023/06/17 07:42:50;;;;;;;23.42;14.25;;;18.20;84.60;;;;;;5007432;28;20071;-64
2023/06/17 07:45:16;;;;;;;22.15;15.13;;;18.40;84.20;;;;;;5005785;28;20156;-64
2023/06/17 07:47:42;;;;;;;23.83;15.43;;;18.40;84.50;;;;;;5010837;28;20053;-64
2023/06/17 07:50:08;;;;;;;20.02;14.88;;;18.50;84.10;;;;;;5007439;28;20391;-66
2023/06/17 07:52:35;;;;;;;20.88;15.38;;;18.20;84.10;;;;;;5003729;28;20037;-64
2023/06/17 07:55:01;;;;;;;23.85;15.90;;;18.20;84.60;;;;;;5006458;28;20418;-63
2023/06/17 07:57:27;;;;;;;24.80;15.52;;;18.10;84.70;;;;;;5007237;28;20104;-64
2023/06/17 07:59:52;;;;;;;23.95;15.45;;;18.00;85.10;;;;;;5006700;28;20109;-64
2023/06/17 08:02:17;;;;;;;26.67;16.73;;;18.00;85.20;;;;;;5008051;28;20036;-64
2023/06/17 08:04:44;;;;;;;22.65;15.68;;;18.00;85.60;;;;;;5007710;28;20462;-64
2023/06/17 08:07:11;;;;;;;22.95;16.73;;;17.90;85.60;;;;;;5005995;28;20038;-64
2023/06/17 08:09:36;;;;;;;24.90;16.23;;;18.00;85.60;;;;;;5004182;28;20018;-66
2023/06/17 08:12:02;;;;;;;27.55;17.52;;;18.30;84.90;;;;;;5004724;28;20453;-64
2023/06/17 08:14:27;;;;;;;22.85;15.63;;;18.40;84.70;;;;;;5006669;28;20113;-64
2023/06/17 08:16:53;;;;;;;24.38;16.10;;;18.40;84.20;;;;;;5007475;28;20077;-68
2023/06/17 08:19:19;;;;;;;25.35;16.63;;;18.40;84.00;;;;;;5018044;28;20077;-64
2023/06/17 08:21:45;;;;;;;23.10;15.27;;;18.50;83.70;;;;;;5014938;28;20040;-66
2023/06/17 08:24:24;;;;;;;25.85;16.20;;;18.50;83.30;;;;;;5008913;28;20322;-64
2023/06/17 08:26:50;;;;;;;27.00;16.23;;;18.60;83.10;;;;;;5006596;28;20028;-64
2023/06/17 08:29:17;;;;;;;22.67;15.52;;;18.80;83.00;;;;;;5011096;28;20346;-64
2023/06/17 08:31:47;;;;;;;26.27;16.40;;;19.00;82.90;;;;;;5005492;28;20124;-63
2023/06/17 08:34:13;;;;;;;23.05;15.63;;;18.80;82.20;;;;;;5008538;28;20030;-64
2023/06/17 08:36:43;;;;;;;27.02;16.40;;;18.60;83.70;;;;;;5002810;28;20544;-64
2023/06/17 08:39:09;;;;;;;22.63;16.08;;;19.00;82.90;;;;;;5007273;28;20029;-63
2023/06/17 08:41:38;;;;;;;21.20;15.18;;;19.10;82.40;;;;;;5008998;28;20022;-63
2023/06/17 08:44:06;;;;;;;23.92;15.30;;;19.20;82.50;;;;;;5005666;28;20107;-64
2023/06/17 08:46:32;;;;;;;24.45;15.93;;;19.30;81.50;;;;;;5006945;28;20032;-63
2023/06/17 08:48:58;;;;;;;24.20;16.77;;;19.30;81.10;;;;;;5004440;28;20442;-64
2023/06/17 08:51:24;;;;;;;21.40;15.77;;;19.10;81.10;;;;;;5001931;28;20040;-65
2023/06/17 08:53:51;;;;;;;19.92;14.95;;;19.00;81.60;;;;;;5012078;28;20025;-64
2023/06/17 08:56:17;;;;;;;27.20;14.38;;;19.20;81.50;;;;;;5016744;28;20033;-65
2023/06/17 08:58:44;;;;;;;22.52;14.05;;;19.50;81.40;;;;;;5003364;28;20083;-63
2023/06/17 09:01:11;;;;;;;22.85;14.98;;;19.60;81.20;;;;;;5007965;28;20163;-64
2023/06/17 09:03:39;;;;;;;25.95;15.95;;;19.70;80.30;;;;;;5014830;28;20318;-64
2023/06/17 09:06:20;;;;;;;19.15;13.73;;;19.80;79.20;;;;;;5005391;28;20030;-64
2023/06/17 09:08:53;;;;;;;27.73;14.88;;;20.10;79.00;;;;;;4999582;28;20022;-64
2023/06/17 09:11:29;;;;;;;23.67;14.40;;;20.20;78.50;;;;;;4997930;28;20687;-65
2023/06/17 09:13:57;;;;;;;23.90;13.93;;;20.50;77.40;;;;;;5008526;28;20117;-65
2023/06/17 09:16:26;;;;;;;21.50;14.15;;;20.50;76.70;;;;;;5016176;28;20108;-64
2023/06/17 09:18:55;;;;;;;19.23;13.43;;;20.80;75.30;;;;;;5001419;28;20148;-64
2023/06/17 09:21:22;;;;;;;20.83;13.38;;;20.90;75.50;;;;;;5008549;28;20130;-64
2023/06/17 09:23:54;;;;;;;19.15;12.55;;;21.40;74.00;;;;;;5010314;28;20038;-65
2023/06/17 09:26:24;;;;;;;16.67;12.43;;;22.00;71.70;;;;;;5013430;28;20080;-64
2023/06/17 09:28:49;;;;;;;16.98;12.13;;;22.20;70.80;;;;;;5004377;28;20037;-65
2023/06/17 09:31:14;;;;;;;17.75;12.05;;;22.00;70.70;;;;;;5011698;28;20030;-66
2023/06/17 09:33:44;;;;;;;17.17;12.65;;;22.20;70.30;;;;;;5007081;28;20030;-64
2023/06/17 09:36:10;;;;;;;15.43;11.43;;;22.10;71.30;;;;;;5010839;28;20072;-64
2023/06/17 09:38:40;;;;;;;20.85;12.68;;;21.60;71.80;;;;;;5001863;28;20555;-65
2023/06/17 09:41:12;;;;;;;16.02;11.60;;;21.90;70.30;;;;;;5006761;28;20118;-66
2023/06/17 09:43:38;;;;;;;18.30;12.25;;;21.70;71.30;;;;;;5003705;28;20430;-65
2023/06/17 09:46:04;;;;;;;22.38;12.38;;;21.70;70.80;;;;;;5008784;28;20080;-64
2023/06/17 09:48:40;;;;;;;23.33;13.45;;;21.70;71.40;;;;;;5009011;28;20052;-66
2023/06/17 09:51:09;;;;;;;21.27;12.15;;;21.50;71.30;;;;;;5012997;28;20045;-66
2023/06/17 09:53:35;;;;;;;16.80;11.38;;;22.40;69.40;;;;;;5013656;28;20487;-65
2023/06/17 09:56:01;;;;;;;17.60;12.00;;;22.80;69.30;;;;;;5015701;28;20427;-64
2023/06/17 09:58:31;;;;;;;22.40;11.75;;;22.60;68.50;;;;;;5014809;28;20021;-64
2023/06/17 10:00:57;;;;;;;18.75;11.70;;;23.20;68.20;;;;;;5017215;28;20036;-64
2023/06/17 10:03:23;;;;;;;17.80;11.63;;;23.00;65.90;;;;;;5002437;28;20464;-65
2023/06/17 10:06:06;;;;;;;18.88;11.57;;;22.70;67.50;;;;;;5008017;28;20057;-65
2023/06/17 10:08:35;;;;;;;15.75;11.32;;;22.50;68.00;;;;;;4997019;28;20032;-64
2023/06/17 10:11:01;;;;;;;15.23;11.80;;;22.20;68.00;;;;;;5012594;28;20061;-64
2023/06/17 10:13:31;;;;;;;16.85;11.68;;;21.70;69.90;;;;;;4999618;28;20135;-64
2023/06/17 10:15:59;;;;;;;16.43;12.03;;;22.30;69.50;;;;;;5006199;28;20112;-64
2023/06/17 10:18:27;;;;;;;20.63;12.45;;;22.10;68.60;;;;;;5014142;28;20157;-64
2023/06/17 10:20:53;;;;;;;20.25;11.63;;;22.90;68.40;;;;;;5010339;28;20038;-64
2023/06/17 10:23:21;;;;;;;18.83;10.80;;;22.70;68.50;;;;;;4997965;28;20212;-66
2023/06/17 10:25:47;;;;;;;17.13;11.45;;;23.40;66.70;;;;;;5000066;28;20026;-66
2023/06/17 10:28:14;;;;;;;17.75;11.52;;;24.10;63.70;;;;;;4999502;28;20450;-65
2023/06/17 10:30:44;;;;;;;16.98;10.85;;;24.20;63.60;;;;;;4999147;28;20426;-64
2023/06/17 10:33:09;;;;;;;18.97;10.70;;;24.60;61.40;;;;;;5006449;28;20049;-64
2023/06/17 10:35:45;;;;;;;16.02;10.25;;;24.60;60.80;;;;;;5003004;28;20076;-64
2023/06/17 10:38:28;;;;;;;15.68;9.68;;;25.00;60.40;;;;;;5007297;28;20063;-66
2023/06/17 10:40:53;;;;;;;16.08;10.55;;;24.80;60.90;;;;;;5002592;28;20026;-65
2023/06/17 10:43:20;;;;;;;15.25;9.48;;;24.60;60.50;;;;;;5007259;28;20022;-65
2023/06/17 10:45:51;;;;;;;15.70;10.13;;;23.90;60.80;;;;;;5012923;28;20453;-66
2023/06/17 10:48:20;;;;;;;;;;;23.80;61.10;;;;;;5005664;28;20137;-66
2023/06/17 10:50:51;;;;;;;17.67;9.73;;;23.50;62.60;;;;;;5000916;28;19909;-66
2023/06/17 10:53:17;;;;;;;16.85;9.73;;;23.80;62.70;;;;;;5006759;28;20401;-66
2023/06/17 10:55:43;;;;;;;16.95;9.65;;;24.60;61.60;;;;;;5006591;28;20077;-65
2023/06/17 10:58:09;;;;;;;18.25;10.25;;;24.80;62.50;;;;;;5002137;28;20104;-65
2023/06/17 11:00:35;;;;;;;15.73;9.73;;;24.90;59.30;;;;;;5004998;28;20136;-64
2023/06/17 11:03:01;;;;;;;15.32;9.48;;;25.40;59.00;;;;;;5006201;28;20022;-65
2023/06/17 11:05:33;;;;;;;13.75;8.73;;;25.70;56.50;;;;;;5004798;28;20042;-65
2023/06/17 11:07:59;;;;;;;17.33;8.68;;;25.50;57.80;;;;;;5006891;28;20406;-65
2023/06/17 11:10:24;;;;;;;11.63;8.73;;;25.20;56.40;;;;;;5008292;28;20063;-65
2023/06/17 11:12:50;;;;;;;15.63;8.98;;;25.40;56.70;;;;;;5003893;28;20437;-65
2023/06/17 11:15:16;;;;;;;15.60;8.68;;;25.30;57.20;;;;;;5000102;28;20038;-66
2023/06/17 11:17:41;;;;;;;14.57;8.60;;;25.80;54.90;;;;;;5005949;28;20389;-66
2023/06/17 11:20:07;;;;;;;13.23;7.93;;;26.10;54.20;;;;;;4999989;28;20382;-67
2023/06/17 11:22:38;;;;;;;13.93;7.43;;;26.50;53.90;;;;;;5008479;28;20129;-65
2023/06/17 11:25:04;;;;;;;12.32;7.25;;;27.00;52.50;;;;;;5013907;28;20032;-65
2023/06/17 11:27:29;;;;;;;10.45;6.65;;;27.10;50.60;;;;;;5008502;28;20458;-65
2023/06/17 11:29:55;;;;;;;9.50;6.70;;;26.50;51.00;;;;;;5017777;28;20029;-65
2023/06/17 11:32:21;;;;;;;9.63;6.32;;;26.40;51.80;;;;;;4997810;28;20082;-66
2023/06/17 11:34:46;;;;;;;9.55;6.30;;;27.10;52.70;;;;;;5010759;28;20036;-65
2023/06/17 11:37:12;;;;;;;8.65;5.70;;;27.60;51.40;;;;;;5009616;28;20101;-65
2023/06/17 11:39:38;;;;;;;10.68;6.75;;;27.60;52.40;;;;;;4993486;28;20452;-67
2023/06/17 11:42:05;;;;;;;10.25;6.28;;;27.20;49.90;;;;;;5004603;28;20441;-65
2023/06/17 11:44:32;;;;;;;11.35;7.25;;;27.70;48.50;;;;;;5001756;28;20025;-65
2023/06/17 11:47:08;;;;;;;10.15;6.25;;;27.90;48.60;;;;;;5006432;28;20054;-65
2023/06/17 11:49:34;;;;;;;10.43;7.32;;;28.00;50.00;;;;;;4996803;28;20116;-66
2023/06/17 11:52:08;;;;;;;9.55;6.97;;;28.00;48.90;;;;;;5002646;28;20175;-65
2023/06/17 11:54:34;;;;;;;10.43;6.63;;;28.40;47.70;;;;;;5016276;28;20460;-65
2023/06/17 11:57:00;;;;;;;11.43;6.68;;;28.20;48.00;;;;;;5003844;28;20205;-65
2023/06/17 11:59:25;;;;;;;11.27;7.13;;;27.90;47.80;;;;;;5005144;28;20029;-64
2023/06/17 12:01:53;;;;;;;10.73;6.60;;;28.10;48.10;;;;;;5001097;28;20036;-67
2023/06/17 12:04:19;;;;;;;12.80;6.68;;;28.60;48.20;;;;;;4999524;28;20116;-66
2023/06/17 12:06:46;;;;;;;9.90;6.82;;;28.40;48.40;;;;;;5001553;28;20112;-67
2023/06/17 12:09:12;;;;;;;9.85;5.97;;;28.60;47.10;;;;;;4998668;28;20048;-65
2023/06/17 12:11:39;;;;;;;8.75;5.78;;;28.40;46.90;;;;;;5016509;28;20030;-65
2023/06/17 12:14:09;;;;;;;8.68;5.63;;;27.60;49.70;;;;;;5005240;28;20044;-67
2023/06/17 12:16:36;;;;;;;11.02;6.03;;;27.60;48.80;;;;;;5004199;28;20323;-65
2023/06/17 12:19:22;;;;;;;10.25;6.30;;;28.80;47.70;;;;;;5010041;28;20397;-66
2023/06/17 12:21:48;;;;;;;12.50;6.88;;;28.80;46.80;;;;;;5009757;28;20475;-66
2023/06/17 12:24:17;;;;;;;11.65;6.80;;;28.60;46.10;;;;;;5013017;28;20029;-65
2023/06/17 12:26:44;;;;;;;11.00;6.57;;;28.80;47.40;;;;;;5009322;28;20323;-65